Time;durP1;ratioP1;P1;durP2;ratioP2;P2;SDS_P1;SDS_P2;PMS_P1;PMS_P2;Temp;Humidity;BMP_temperature;BMP_pressure;BME280_temperature;BME280_humidity;BME280_pressure;Samples;Min_cycle;Max_cycle;Signal;HPM_P1;HPM_P2
2022/07/22 00:01:51;;;;;;;5.63;2.22;;;15.80;99.90;;;;;;5066875;28;20048;-67
2022/07/22 00:04:17;;;;;;;6.03;2.28;;;15.80;99.90;;;;;;5049338;28;20052;-66
2022/07/22 00:06:43;;;;;;;6.68;2.20;;;15.80;99.90;;;;;;5049541;28;20040;-66
2022/07/22 00:09:08;;;;;;;6.60;3.00;;;15.80;99.90;;;;;;5048708;28;20048;-66
2022/07/22 00:11:35;;;;;;;11.70;3.13;;;15.80;99.90;;;;;;5048878;28;20047;-66
2022/07/22 00:14:01;;;;;;;8.02;2.58;;;15.70;99.90;;;;;;5033213;28;20532;-66
2022/07/22 00:16:27;;;;;;;8.20;3.10;;;15.70;99.90;;;;;;5048651;28;20114;-66
2022/07/22 00:18:52;;;;;;;9.38;3.22;;;15.70;99.90;;;;;;5067667;28;20048;-66
2022/07/22 00:21:18;;;;;;;10.48;3.35;;;15.70;99.90;;;;;;5048463;28;20480;-66
2022/07/22 00:23:43;;;;;;;10.43;3.63;;;15.70;99.90;;;;;;5048971;28;20048;-66
2022/07/22 00:26:10;;;;;;;10.35;3.80;;;15.60;99.90;;;;;;5048687;28;20041;-66
2022/07/22 00:28:36;;;;;;;9.23;3.30;;;15.60;99.90;;;;;;5048342;28;20053;-66
2022/07/22 00:31:02;;;;;;;11.40;4.35;;;15.60;99.90;;;;;;5032417;28;20087;-66
2022/07/22 00:33:27;;;;;;;9.23;4.32;;;15.60;99.90;;;;;;5049347;28;20049;-66
2022/07/22 00:35:53;;;;;;;10.15;3.78;;;15.60;99.90;;;;;;5047752;28;20052;-66
2022/07/22 00:38:19;;;;;;;10.88;4.00;;;15.60;99.90;;;;;;5066488;28;20191;-66
2022/07/22 00:40:45;;;;;;;14.95;3.90;;;15.60;99.90;;;;;;5046559;28;20041;-67
2022/07/22 00:43:11;;;;;;;9.65;4.22;;;15.60;99.90;;;;;;5048893;28;20060;-66
2022/07/22 00:45:37;;;;;;;12.60;3.60;;;15.60;99.90;;;;;;5047518;28;20076;-66
2022/07/22 00:48:03;;;;;;;10.35;3.92;;;15.60;99.90;;;;;;5048244;28;20112;-67
2022/07/22 00:50:29;;;;;;;10.40;4.15;;;15.60;99.90;;;;;;5048157;28;20041;-66
2022/07/22 00:52:55;;;;;;;13.13;3.95;;;15.60;99.90;;;;;;5067240;28;20493;-66
2022/07/22 00:55:21;;;;;;;12.00;4.47;;;15.60;99.90;;;;;;5048811;28;20120;-66
2022/07/22 00:57:47;;;;;;;14.32;4.90;;;15.60;99.90;;;;;;5065568;28;20076;-66
2022/07/22 01:00:16;;;;;;;14.82;5.63;;;15.60;99.90;;;;;;5065918;28;20044;-66
2022/07/22 01:02:42;;;;;;;14.40;4.77;;;15.60;99.90;;;;;;5031244;28;20053;-66
2022/07/22 01:05:08;;;;;;;10.73;4.93;;;15.60;99.90;;;;;;5048188;28;20333;-66
2022/07/22 01:07:33;;;;;;;11.13;4.80;;;15.50;99.90;;;;;;5047622;28;20409;-66
2022/07/22 01:09:59;;;;;;;15.38;4.80;;;15.50;99.90;;;;;;5066299;28;20044;-66
2022/07/22 01:12:25;;;;;;;15.13;5.20;;;15.50;99.90;;;;;;5048864;28;20049;-66
2022/07/22 01:14:50;;;;;;;15.32;5.85;;;15.60;99.90;;;;;;5046030;28;20064;-66
2022/07/22 01:17:16;;;;;;;12.88;4.80;;;15.60;99.90;;;;;;5065814;28;20102;-66
2022/07/22 01:19:42;;;;;;;14.95;4.75;;;15.60;99.90;;;;;;5048301;28;20105;-66
2022/07/22 01:22:08;;;;;;;15.00;5.25;;;15.50;99.90;;;;;;5066640;28;20051;-66
2022/07/22 01:24:34;;;;;;;14.05;5.53;;;15.60;99.90;;;;;;5045030;28;20056;-66
2022/07/22 01:27:00;;;;;;;11.80;5.20;;;15.60;99.90;;;;;;5047764;28;20113;-66
2022/07/22 01:29:26;;;;;;;14.85;5.82;;;15.70;99.90;;;;;;5047775;28;20469;-66
2022/07/22 01:31:52;;;;;;;15.38;5.07;;;15.70;99.90;;;;;;5047296;28;20080;-66
2022/07/22 01:34:18;;;;;;;11.73;4.57;;;15.70;99.90;;;;;;5066203;28;20048;-66
2022/07/22 01:36:43;;;;;;;13.80;4.88;;;15.60;99.90;;;;;;5047606;28;20052;-67
2022/07/22 01:39:09;;;;;;;14.68;5.05;;;15.60;99.90;;;;;;5047374;28;20056;-66
2022/07/22 01:41:35;;;;;;;16.88;4.95;;;15.50;99.90;;;;;;5031099;28;20067;-66
2022/07/22 01:44:01;;;;;;;10.27;4.32;;;15.60;99.90;;;;;;5047010;28;20071;-66
2022/07/22 01:46:26;;;;;;;10.75;4.38;;;15.60;99.90;;;;;;5047476;28;20049;-66
2022/07/22 01:48:53;;;;;;;14.68;4.50;;;15.60;99.90;;;;;;5046802;28;20104;-66
2022/07/22 01:51:19;;;;;;;17.55;5.00;;;15.60;99.90;;;;;;5044889;28;20459;-67
2022/07/22 01:53:45;;;;;;;14.25;4.35;;;15.50;99.90;;;;;;5047506;28;20049;-67
2022/07/22 01:56:11;;;;;;;13.13;4.00;;;15.50;99.90;;;;;;5046742;28;20043;-67
2022/07/22 01:58:37;;;;;;;14.10;4.28;;;15.50;99.90;;;;;;5029818;28;20471;-67
2022/07/22 02:01:03;;;;;;;12.90;3.75;;;15.40;99.90;;;;;;5047181;28;20113;-67
2022/07/22 02:03:28;;;;;;;13.93;4.57;;;15.40;99.90;;;;;;5046913;28;20404;-67
2022/07/22 02:05:55;;;;;;;12.82;4.28;;;15.40;99.90;;;;;;5041852;28;20055;-67
2022/07/22 02:08:21;;;;;;;13.77;4.53;;;15.40;99.90;;;;;;5046362;28;20053;-67
2022/07/22 02:10:47;;;;;;;15.88;4.60;;;15.40;99.90;;;;;;5047644;28;20033;-67
2022/07/22 02:13:13;;;;;;;11.82;3.60;;;15.40;99.90;;;;;;5046397;28;20060;-67
2022/07/22 02:15:38;;;;;;;13.15;5.13;;;15.40;99.90;;;;;;5047598;28;20068;-67
2022/07/22 02:18:16;;;;;;;15.57;4.28;;;15.40;99.90;;;;;;5065467;28;20060;-67
2022/07/22 02:20:42;;;;;;;17.98;3.80;;;15.40;99.90;;;;;;5047857;28;20044;-67
2022/07/22 02:23:08;;;;;;;11.27;4.88;;;15.40;99.90;;;;;;5045085;28;20037;-67
2022/07/22 02:25:34;;;;;;;9.80;3.90;;;15.40;99.90;;;;;;5064835;28;20052;-67
2022/07/22 02:28:00;;;;;;;13.57;4.78;;;15.40;99.90;;;;;;5045774;28;20053;-67
2022/07/22 02:30:26;;;;;;;13.55;3.80;;;15.50;99.90;;;;;;5064288;28;20303;-67
2022/07/22 02:32:52;;;;;;;14.80;3.70;;;15.50;99.90;;;;;;5046322;28;20045;-67
2022/07/22 02:35:18;;;;;;;11.07;3.97;;;15.50;99.90;;;;;;5046985;28;20067;-67
2022/07/22 02:37:43;;;;;;;12.75;4.07;;;15.50;99.90;;;;;;5046470;28;20068;-67
2022/07/22 02:40:09;;;;;;;14.10;4.35;;;15.50;99.90;;;;;;5046209;28;20049;-67
2022/07/22 02:42:35;;;;;;;13.02;3.50;;;15.50;99.90;;;;;;5064216;28;20044;-67
2022/07/22 02:45:02;;;;;;;12.05;3.30;;;15.50;99.90;;;;;;5039754;28;20045;-67
2022/07/22 02:47:27;;;;;;;13.77;3.63;;;15.50;99.90;;;;;;5045711;28;20051;-67
2022/07/22 02:49:53;;;;;;;11.35;3.55;;;15.50;99.90;;;;;;5046185;28;20040;-67
2022/07/22 02:52:19;;;;;;;10.05;3.60;;;15.60;99.90;;;;;;5045529;28;20041;-67
2022/07/22 02:54:44;;;;;;;12.60;4.30;;;15.50;99.90;;;;;;5063757;28;20103;-67
2022/07/22 02:57:10;;;;;;;10.98;3.97;;;15.50;99.90;;;;;;5064309;28;20049;-67
2022/07/22 02:59:36;;;;;;;11.00;4.05;;;15.50;99.90;;;;;;5063920;28;20100;-67
2022/07/22 03:02:02;;;;;;;14.10;4.65;;;15.50;99.90;;;;;;5063852;28;20045;-67
2022/07/22 03:04:27;;;;;;;13.25;3.88;;;15.50;99.90;;;;;;5064773;28;20041;-67
2022/07/22 03:06:54;;;;;;;10.82;2.90;;;15.50;99.90;;;;;;5046340;28;20102;-67
2022/07/22 03:09:20;;;;;;;11.30;3.90;;;15.50;99.90;;;;;;5063609;28;20045;-67
2022/07/22 03:11:46;;;;;;;12.82;3.97;;;15.60;99.90;;;;;;5045538;28;20052;-67
2022/07/22 03:14:11;;;;;;;12.88;3.30;;;15.50;99.90;;;;;;5046031;28;20056;-67
2022/07/22 03:16:37;;;;;;;9.95;3.28;;;15.40;99.90;;;;;;5063425;28;20514;-67
2022/07/22 03:19:03;;;;;;;15.70;3.20;;;15.50;99.90;;;;;;5062985;28;20128;-67
2022/07/22 03:21:29;;;;;;;8.60;3.28;;;15.40;99.90;;;;;;5063488;28;20084;-67
2022/07/22 03:23:55;;;;;;;12.65;2.80;;;15.40;99.90;;;;;;5045710;28;20143;-67
2022/07/22 03:26:21;;;;;;;10.75;2.92;;;15.30;99.90;;;;;;5045963;28;20072;-67
2022/07/22 03:28:47;;;;;;;12.50;2.78;;;15.30;99.90;;;;;;5046714;28;20408;-67
2022/07/22 03:31:14;;;;;;;14.68;3.47;;;15.30;99.90;;;;;;5045586;28;20053;-67
2022/07/22 03:33:39;;;;;;;8.57;3.30;;;15.20;99.90;;;;;;5045536;28;20124;-67
2022/07/22 03:36:05;;;;;;;11.50;3.67;;;15.20;99.90;;;;;;5030627;28;20059;-67
2022/07/22 03:38:33;;;;;;;9.50;2.88;;;15.20;99.90;;;;;;5079148;28;20048;-67
2022/07/22 03:40:58;;;;;;;6.97;2.88;;;15.20;99.90;;;;;;5065084;28;20045;-67
2022/07/22 03:43:24;;;;;;;5.80;2.40;;;15.20;99.90;;;;;;5065742;28;20055;-67
2022/07/22 03:45:50;;;;;;;6.82;2.67;;;15.20;99.90;;;;;;5065844;28;20047;-67
2022/07/22 03:48:15;;;;;;;7.63;2.65;;;15.20;99.90;;;;;;5084444;28;20048;-67
2022/07/22 03:50:41;;;;;;;11.32;2.88;;;15.20;99.90;;;;;;5066856;28;20049;-67
2022/07/22 03:53:07;;;;;;;11.05;2.88;;;15.20;99.90;;;;;;5084369;28;20048;-67
2022/07/22 03:55:32;;;;;;;9.77;3.25;;;15.20;99.90;;;;;;5065026;28;20158;-67
2022/07/22 03:57:58;;;;;;;10.40;2.97;;;15.20;99.90;;;;;;5083738;28;20076;-67
2022/07/22 04:00:24;;;;;;;8.73;2.45;;;15.20;99.90;;;;;;5065193;28;20052;-67
2022/07/22 04:02:50;;;;;;;11.15;3.03;;;15.30;99.90;;;;;;5083161;28;20090;-67
2022/07/22 04:05:15;;;;;;;10.90;2.97;;;15.30;99.90;;;;;;5065207;28;20067;-67
2022/07/22 04:07:41;;;;;;;9.95;2.72;;;15.30;99.90;;;;;;5048605;28;20044;-67
2022/07/22 04:10:07;;;;;;;9.50;2.35;;;15.30;99.90;;;;;;5065252;28;20049;-67
2022/07/22 04:12:34;;;;;;;8.57;2.60;;;15.30;99.90;;;;;;5064980;28;20036;-67
2022/07/22 04:15:00;;;;;;;6.30;3.08;;;15.30;99.90;;;;;;5065052;28;20048;-67
2022/07/22 04:17:26;;;;;;;10.77;3.22;;;15.30;99.90;;;;;;5064620;28;20100;-67
2022/07/22 04:19:52;;;;;;;8.40;3.05;;;15.30;99.90;;;;;;5064639;28;20049;-67
2022/07/22 04:22:18;;;;;;;7.35;2.30;;;15.30;99.90;;;;;;5065206;28;20045;-67
2022/07/22 04:24:43;;;;;;;7.57;2.80;;;15.40;99.90;;;;;;5083815;28;20044;-67
2022/07/22 04:27:09;;;;;;;13.35;2.90;;;15.40;99.90;;;;;;5066152;28;20047;-67
2022/07/22 04:29:35;;;;;;;7.22;2.20;;;15.40;99.90;;;;;;5049387;28;20075;-67
2022/07/22 04:32:00;;;;;;;6.88;2.28;;;15.50;99.90;;;;;;5066502;28;20071;-67
2022/07/22 04:34:26;;;;;;;8.25;2.58;;;15.50;99.90;;;;;;5068637;28;20044;-67
2022/07/22 04:36:52;;;;;;;9.02;2.55;;;15.60;99.90;;;;;;5068397;28;20060;-67
2022/07/22 04:39:18;;;;;;;6.22;2.60;;;15.60;99.90;;;;;;5067998;28;20118;-67
2022/07/22 04:41:43;;;;;;;6.63;2.30;;;15.60;99.90;;;;;;5068620;28;20064;-67
2022/07/22 04:44:09;;;;;;;9.00;2.70;;;15.60;99.90;;;;;;5067911;28;20104;-67
2022/07/22 04:46:35;;;;;;;7.82;2.88;;;15.60;99.90;;;;;;5068577;28;20049;-67
2022/07/22 04:49:01;;;;;;;12.27;2.80;;;15.60;99.90;;;;;;5086010;28;20024;-67
2022/07/22 04:51:26;;;;;;;6.35;2.28;;;15.60;99.90;;;;;;5068319;28;20586;-67
2022/07/22 04:53:52;;;;;;;11.07;2.42;;;15.60;99.90;;;;;;5067784;28;20400;-67
2022/07/22 04:56:18;;;;;;;11.00;3.20;;;15.60;99.90;;;;;;5068324;28;20049;-67
2022/07/22 04:58:43;;;;;;;9.98;2.25;;;15.60;99.90;;;;;;5085514;28;20032;-67
2022/07/22 05:01:09;;;;;;;4.72;2.45;;;15.60;99.90;;;;;;5069168;28;20413;-67
2022/07/22 05:03:38;;;;;;;6.88;2.55;;;15.70;99.90;;;;;;5085955;28;20044;-67
2022/07/22 05:06:04;;;;;;;7.22;2.20;;;15.60;99.90;;;;;;5067729;28;20047;-67
2022/07/22 05:08:30;;;;;;;9.48;2.80;;;15.60;99.90;;;;;;5086412;28;20080;-67
2022/07/22 05:10:55;;;;;;;6.28;1.88;;;15.60;99.90;;;;;;5086687;28;20048;-67
2022/07/22 05:13:21;;;;;;;7.13;2.65;;;15.60;99.90;;;;;;5086101;28;20048;-67
2022/07/22 05:15:47;;;;;;;7.10;2.83;;;15.70;99.90;;;;;;5084078;28;20186;-67
2022/07/22 05:18:12;;;;;;;4.80;2.22;;;15.70;99.90;;;;;;5085389;28;20044;-67
2022/07/22 05:20:38;;;;;;;10.38;2.80;;;15.70;99.90;;;;;;5086779;28;20029;-67
2022/07/22 05:23:04;;;;;;;5.32;1.83;;;15.70;99.90;;;;;;5086542;28;20126;-67
2022/07/22 05:25:29;;;;;;;9.60;2.55;;;15.70;99.90;;;;;;5085432;28;20119;-67
2022/07/22 05:27:56;;;;;;;7.85;2.60;;;15.70;99.90;;;;;;5085451;28;20137;-67
2022/07/22 05:30:22;;;;;;;7.63;2.50;;;15.70;99.90;;;;;;5067298;28;20048;-67
2022/07/22 05:32:47;;;;;;;9.90;2.90;;;15.80;99.90;;;;;;5086073;28;20044;-67
2022/07/22 05:35:13;;;;;;;12.13;2.70;;;15.80;99.90;;;;;;5067684;28;20052;-67
2022/07/22 05:37:39;;;;;;;9.13;2.45;;;15.80;99.90;;;;;;5073363;28;20052;-67
2022/07/22 05:40:05;;;;;;;6.43;2.35;;;15.80;99.90;;;;;;5064660;28;20049;-67
2022/07/22 05:42:31;;;;;;;7.00;2.63;;;15.80;99.90;;;;;;5065457;28;20029;-67
2022/07/22 05:44:57;;;;;;;6.22;2.88;;;15.90;99.90;;;;;;5066148;28;20033;-67
2022/07/22 05:47:22;;;;;;;15.18;2.85;;;15.90;99.90;;;;;;5066588;28;20447;-67
2022/07/22 05:49:48;;;;;;;6.20;2.13;;;15.90;99.90;;;;;;5046710;28;20055;-67
2022/07/22 05:52:14;;;;;;;8.30;2.50;;;16.00;99.90;;;;;;5065616;28;20048;-67
2022/07/22 05:54:39;;;;;;;9.23;2.05;;;16.00;99.90;;;;;;5048076;28;20109;-67
2022/07/22 05:57:09;;;;;;;6.82;2.08;;;16.00;99.90;;;;;;5047411;28;20498;-67
2022/07/22 05:59:35;;;;;;;8.02;3.28;;;16.00;99.90;;;;;;5065075;28;20128;-67
2022/07/22 06:02:01;;;;;;;7.90;2.28;;;16.00;99.90;;;;;;5064359;28;20045;-67
2022/07/22 06:04:27;;;;;;;7.90;2.83;;;16.00;99.90;;;;;;5047032;28;20052;-67
2022/07/22 06:06:52;;;;;;;17.25;3.70;;;16.00;99.90;;;;;;5064544;28;20053;-67
2022/07/22 06:09:18;;;;;;;8.00;2.80;;;16.10;99.90;;;;;;5064438;28;20048;-67
2022/07/22 06:11:44;;;;;;;9.10;2.45;;;16.00;99.90;;;;;;5064231;28;20057;-67
2022/07/22 06:14:10;;;;;;;7.03;2.10;;;16.10;99.90;;;;;;5064433;28;20053;-67
2022/07/22 06:16:36;;;;;;;12.07;2.50;;;16.10;99.90;;;;;;5064566;28;20056;-67
2022/07/22 06:19:02;;;;;;;4.95;2.20;;;16.20;99.90;;;;;;5047542;28;20041;-67
2022/07/22 06:21:28;;;;;;;5.80;2.03;;;16.20;99.90;;;;;;5045356;28;20041;-67
2022/07/22 06:23:54;;;;;;;7.10;2.17;;;16.10;99.90;;;;;;5064306;28;20646;-67
2022/07/22 06:26:20;;;;;;;6.70;2.45;;;16.20;99.90;;;;;;5046620;28;20040;-66
2022/07/22 06:28:45;;;;;;;8.20;2.35;;;16.20;99.90;;;;;;5064305;28;20075;-67
2022/07/22 06:31:11;;;;;;;7.68;2.25;;;16.10;99.90;;;;;;5064165;28;20067;-67
2022/07/22 06:33:37;;;;;;;11.70;2.92;;;16.20;99.90;;;;;;5046457;28;20052;-67
2022/07/22 06:36:04;;;;;;;6.38;2.10;;;16.20;99.90;;;;;;5064134;28;20060;-67
2022/07/22 06:38:30;;;;;;;9.10;1.98;;;16.30;99.90;;;;;;5046032;28;20453;-67
2022/07/22 06:40:56;;;;;;;4.03;2.08;;;16.30;99.90;;;;;;5046104;28;20056;-67
2022/07/22 06:43:21;;;;;;;8.75;2.45;;;16.30;99.90;;;;;;5064652;28;20041;-67
2022/07/22 06:45:48;;;;;;;7.88;2.13;;;16.40;99.90;;;;;;5047380;28;20059;-67
2022/07/22 06:48:13;;;;;;;8.07;2.25;;;16.40;99.90;;;;;;5063797;28;20083;-67
2022/07/22 06:50:39;;;;;;;8.80;2.20;;;16.40;99.90;;;;;;5045999;28;20040;-67
2022/07/22 06:53:05;;;;;;;6.63;2.30;;;16.40;99.90;;;;;;5045993;28;20052;-67
2022/07/22 06:55:32;;;;;;;8.05;2.33;;;16.50;99.90;;;;;;5045180;28;20048;-67
2022/07/22 06:57:57;;;;;;;4.70;1.70;;;16.50;99.90;;;;;;5063754;28;20044;-67
2022/07/22 07:00:23;;;;;;;6.13;2.15;;;16.70;99.90;;;;;;5064081;28;20493;-67
2022/07/22 07:02:49;;;;;;;5.60;2.13;;;16.70;99.90;;;;;;5063280;28;20048;-67
2022/07/22 07:05:14;;;;;;;6.70;2.13;;;16.80;99.90;;;;;;5045974;28;20045;-67
2022/07/22 07:07:40;;;;;;;7.22;2.30;;;16.90;99.90;;;;;;5045687;28;20075;-67
2022/07/22 07:10:06;;;;;;;8.80;2.50;;;17.00;99.90;;;;;;5063645;28;20052;-67
2022/07/22 07:12:32;;;;;;;7.07;2.33;;;17.00;99.90;;;;;;5046212;28;20047;-67
2022/07/22 07:14:58;;;;;;;8.98;2.75;;;17.10;99.90;;;;;;5065078;28;20131;-67
2022/07/22 07:17:24;;;;;;;13.02;2.28;;;17.10;99.90;;;;;;5063111;28;20048;-67
2022/07/22 07:19:50;;;;;;;9.00;2.90;;;17.10;99.90;;;;;;5063993;28;20095;-67
2022/07/22 07:22:15;;;;;;;5.00;1.85;;;16.90;99.90;;;;;;5064561;28;20057;-67
2022/07/22 07:24:42;;;;;;;9.68;1.80;;;17.00;99.90;;;;;;5046628;28;20041;-67
2022/07/22 07:27:08;;;;;;;8.65;2.35;;;16.90;99.90;;;;;;5045576;28;20076;-67
2022/07/22 07:29:33;;;;;;;6.88;2.30;;;17.00;99.90;;;;;;5045384;28;20048;-67
2022/07/22 07:31:59;;;;;;;6.18;1.67;;;17.00;99.90;;;;;;5063172;28;20037;-67
2022/07/22 07:34:25;;;;;;;4.65;1.55;;;17.10;99.90;;;;;;5063276;28;20037;-67
2022/07/22 07:36:50;;;;;;;6.95;1.85;;;17.20;99.90;;;;;;5065757;28;20041;-67
2022/07/22 07:39:16;;;;;;;9.18;2.25;;;17.20;99.90;;;;;;5083628;28;20044;-67
2022/07/22 07:41:42;;;;;;;6.75;1.83;;;17.20;99.90;;;;;;5083313;28;20059;-67
2022/07/22 07:44:08;;;;;;;4.32;1.40;;;17.20;99.90;;;;;;5065355;28;20040;-67
2022/07/22 07:46:33;;;;;;;7.65;2.40;;;17.30;99.90;;;;;;5066129;28;20075;-67
2022/07/22 07:48:59;;;;;;;10.93;3.30;;;17.40;99.90;;;;;;5083762;28;20037;-67
2022/07/22 07:51:25;;;;;;;6.15;2.00;;;17.40;99.90;;;;;;5083449;28;20130;-67
2022/07/22 07:53:50;;;;;;;4.80;1.80;;;17.40;99.90;;;;;;5082673;28;20078;-67
2022/07/22 07:56:16;;;;;;;5.22;1.63;;;17.60;99.90;;;;;;5083285;28;20047;-67
2022/07/22 07:58:42;;;;;;;3.63;1.60;;;17.50;99.90;;;;;;5083504;28;20055;-67
2022/07/22 08:01:08;;;;;;;4.20;1.73;;;17.60;99.90;;;;;;5083860;28;20067;-67
2022/07/22 08:03:34;;;;;;;9.68;2.42;;;17.70;99.90;;;;;;5065597;28;20044;-67
2022/07/22 08:06:00;;;;;;;3.40;1.45;;;17.80;99.90;;;;;;5084638;28;20051;-67
2022/07/22 08:08:26;;;;;;;5.47;2.15;;;17.90;99.90;;;;;;5069005;28;20447;-67
2022/07/22 08:10:52;;;;;;;4.90;1.70;;;17.80;99.90;;;;;;5086959;28;20069;-67
2022/07/22 08:13:18;;;;;;;7.88;1.70;;;17.80;99.90;;;;;;5068726;28;20105;-67
2022/07/22 08:15:44;;;;;;;8.25;2.00;;;17.90;99.90;;;;;;5086677;28;20043;-67
2022/07/22 08:18:09;;;;;;;8.35;2.38;;;17.90;99.90;;;;;;5086660;28;20050;-67
2022/07/22 08:20:35;;;;;;;5.10;1.52;;;17.90;99.90;;;;;;5087375;28;20086;-67
2022/07/22 08:23:01;;;;;;;4.68;1.48;;;18.00;99.90;;;;;;5069761;28;20032;-67
2022/07/22 08:25:27;;;;;;;5.63;1.77;;;18.00;99.90;;;;;;5087361;28;20109;-67
2022/07/22 08:27:53;;;;;;;5.57;1.70;;;17.90;99.90;;;;;;5086378;28;20049;-67
2022/07/22 08:30:19;;;;;;;5.45;1.58;;;17.90;99.90;;;;;;5087833;28;20071;-67
2022/07/22 08:32:46;;;;;;;4.43;1.60;;;17.90;99.90;;;;;;5068562;28;20146;-67
2022/07/22 08:35:12;;;;;;;6.65;1.60;;;17.90;99.90;;;;;;5086677;28;20493;-67
2022/07/22 08:37:38;;;;;;;7.18;1.73;;;17.80;99.90;;;;;;5077672;28;20064;-66
2022/07/22 08:40:06;;;;;;;4.82;1.70;;;17.80;99.90;;;;;;5067559;28;20053;-67
2022/07/22 08:42:38;;;;;;;5.78;1.92;;;17.70;99.90;;;;;;5066561;28;20555;-67
2022/07/22 08:45:04;;;;;;;4.65;1.42;;;17.80;99.90;;;;;;5066679;28;20049;-67
2022/07/22 08:47:30;;;;;;;3.90;1.67;;;17.70;99.90;;;;;;5049773;28;20053;-67
2022/07/22 08:49:56;;;;;;;5.63;1.38;;;17.80;99.90;;;;;;5067211;28;20033;-67
2022/07/22 08:52:22;;;;;;;4.57;1.80;;;17.90;99.90;;;;;;5066347;28;20560;-67
2022/07/22 08:54:48;;;;;;;6.20;2.00;;;17.90;99.90;;;;;;5047780;28;20065;-67
2022/07/22 08:57:13;;;;;;;5.68;1.67;;;17.70;99.90;;;;;;5066007;28;20069;-67
2022/07/22 08:59:57;;;;;;;6.22;2.05;;;17.80;99.90;;;;;;5049151;28;20059;-67
2022/07/22 09:02:24;;;;;;;7.65;1.50;;;17.90;99.90;;;;;;5067273;28;20036;-67
2022/07/22 09:04:55;;;;;;;8.80;1.85;;;17.90;99.90;;;;;;5066681;28;20497;-67
2022/07/22 09:07:30;;;;;;;5.53;1.63;;;18.00;99.90;;;;;;5065966;28;20049;-67
2022/07/22 09:09:57;;;;;;;3.28;1.63;;;18.00;99.90;;;;;;5065829;28;20049;-67
2022/07/22 09:12:23;;;;;;;4.75;1.83;;;18.00;99.90;;;;;;5047831;28;20053;-67
2022/07/22 09:14:51;;;;;;;6.00;1.52;;;17.90;99.90;;;;;;5065915;28;20048;-67
2022/07/22 09:17:27;;;;;;;6.20;1.42;;;17.90;99.90;;;;;;5066937;28;20067;-67
2022/07/22 09:19:56;;;;;;;8.02;1.88;;;17.90;99.90;;;;;;5064047;28;20045;-67
2022/07/22 09:22:45;;;;;;;4.85;1.50;;;18.00;99.90;;;;;;5064642;28;20052;-67
2022/07/22 09:25:28;;;;;;;3.22;1.30;;;17.90;99.90;;;;;;5061446;28;20053;-67
2022/07/22 09:28:11;;;;;;;3.58;1.67;;;17.90;99.90;;;;;;5047784;28;20516;-67
2022/07/22 09:30:44;;;;;;;5.00;1.75;;;18.00;99.90;;;;;;5048314;28;20044;-67
2022/07/22 09:33:10;;;;;;;5.75;1.67;;;18.00;99.90;;;;;;5066671;28;20056;-67
2022/07/22 09:35:39;;;;;;;6.00;1.48;;;17.90;99.90;;;;;;5046158;28;20173;-67
2022/07/22 09:38:07;;;;;;;4.95;1.80;;;17.80;99.90;;;;;;5062117;28;20144;-67
2022/07/22 09:40:38;;;;;;;3.75;1.60;;;17.80;99.90;;;;;;5066657;28;20092;-67
2022/07/22 09:43:12;;;;;;;7.40;1.77;;;17.80;99.90;;;;;;5048180;28;20049;-67
2022/07/22 09:45:59;;;;;;;7.47;2.33;;;17.90;99.90;;;;;;5065545;28;20401;-67
2022/07/22 09:48:25;;;;;;;4.78;1.60;;;17.90;99.90;;;;;;5066711;28;20087;-66
2022/07/22 09:50:53;;;;;;;6.60;2.42;;;18.00;99.90;;;;;;5065688;28;20068;-67
2022/07/22 09:53:22;;;;;;;7.40;1.92;;;18.00;99.90;;;;;;5064890;28;20087;-67
2022/07/22 09:55:49;;;;;;;5.60;1.80;;;18.00;99.90;;;;;;5064606;28;20059;-67
2022/07/22 09:58:15;;;;;;;7.15;2.25;;;18.00;99.90;;;;;;5064988;28;20057;-67
2022/07/22 10:00:42;;;;;;;5.22;2.05;;;18.10;99.90;;;;;;5046788;28;20109;-67
2022/07/22 10:03:12;;;;;;;6.55;2.00;;;18.00;99.90;;;;;;5064933;28;20401;-67
2022/07/22 10:05:39;;;;;;;5.22;1.90;;;18.10;99.90;;;;;;5064620;28;20067;-67
2022/07/22 10:08:06;;;;;;;6.40;1.83;;;18.20;99.90;;;;;;5065341;28;20144;-67
2022/07/22 10:10:34;;;;;;;5.57;1.90;;;18.10;99.90;;;;;;5064494;28;20073;-66
2022/07/22 10:13:02;;;;;;;5.82;1.95;;;18.10;99.90;;;;;;5064576;28;20083;-66
2022/07/22 10:15:29;;;;;;;5.93;2.00;;;17.90;99.90;;;;;;5064766;28;20100;-66
2022/07/22 10:17:57;;;;;;;7.32;2.22;;;17.70;99.90;;;;;;5064603;28;20040;-66
2022/07/22 10:20:28;;;;;;;5.55;1.80;;;17.80;99.90;;;;;;5047305;28;20052;-66
2022/07/22 10:22:56;;;;;;;4.50;2.00;;;17.80;99.90;;;;;;5064635;28;20052;-66
2022/07/22 10:25:24;;;;;;;4.03;1.52;;;17.80;99.90;;;;;;5063501;28;20045;-66
2022/07/22 10:28:03;;;;;;;7.68;1.70;;;17.80;99.90;;;;;;5063576;28;20057;-66
2022/07/22 10:30:40;;;;;;;7.72;1.88;;;17.80;99.90;;;;;;5045235;28;20052;-66
2022/07/22 10:33:11;;;;;;;4.05;1.70;;;18.00;99.90;;;;;;5064184;28;20132;-66
2022/07/22 10:35:52;;;;;;;4.80;1.80;;;18.00;99.90;;;;;;5059075;28;20032;-66
2022/07/22 10:38:19;;;;;;;6.97;2.00;;;18.10;99.90;;;;;;5065104;28;20140;-66
2022/07/22 10:41:03;;;;;;;7.22;2.30;;;18.20;99.90;;;;;;5046777;28;20048;-66
2022/07/22 10:43:47;;;;;;;4.70;1.73;;;18.20;99.90;;;;;;5064745;28;20106;-66
2022/07/22 10:46:14;;;;;;;5.47;2.28;;;18.40;99.90;;;;;;5047109;28;20049;-66
2022/07/22 10:48:39;;;;;;;3.42;1.75;;;18.40;99.90;;;;;;5046046;28;20051;-67
2022/07/22 10:51:16;;;;;;;8.50;2.75;;;18.50;99.90;;;;;;5064168;28;20080;-66
2022/07/22 10:54:01;;;;;;;6.63;1.58;;;18.60;99.90;;;;;;5029776;28;20116;-67
2022/07/22 10:56:33;;;;;;;5.15;1.70;;;18.70;99.90;;;;;;5063938;28;20079;-66
2022/07/22 10:59:12;;;;;;;7.18;2.03;;;18.70;99.90;;;;;;5058025;28;20064;-66
2022/07/22 11:01:47;;;;;;;5.47;1.80;;;18.70;99.90;;;;;;5046350;28;20041;-66
2022/07/22 11:04:24;;;;;;;6.00;1.98;;;18.60;99.90;;;;;;5063798;28;20115;-66
2022/07/22 11:06:52;;;;;;;6.88;1.83;;;18.60;99.90;;;;;;5059232;28;20044;-66
2022/07/22 11:09:21;;;;;;;6.18;2.15;;;18.60;99.90;;;;;;5063546;28;20069;-66
2022/07/22 11:11:52;;;;;;;5.97;1.70;;;18.60;99.90;;;;;;5045980;28;20048;-66
2022/07/22 11:14:25;;;;;;;6.32;1.70;;;18.70;99.90;;;;;;5064734;28;20044;-66
2022/07/22 11:16:51;;;;;;;6.93;2.95;;;18.80;99.90;;;;;;5064997;28;20044;-66
2022/07/22 11:19:29;;;;;;;6.50;1.67;;;18.80;99.90;;;;;;5046780;28;20045;-67
2022/07/22 11:22:04;;;;;;;7.57;2.30;;;18.80;99.90;;;;;;5047123;28;20048;-66
2022/07/22 11:24:30;;;;;;;6.72;2.80;;;18.70;99.90;;;;;;5044352;28;20104;-66
2022/07/22 11:26:58;;;;;;;5.80;2.25;;;18.70;99.90;;;;;;5046149;28;20336;-66
2022/07/22 11:29:26;;;;;;;6.60;2.15;;;18.70;99.90;;;;;;5047093;28;20044;-66
2022/07/22 11:31:54;;;;;;;6.68;1.90;;;18.80;99.90;;;;;;5047026;28;20128;-66
2022/07/22 11:34:20;;;;;;;6.43;2.20;;;18.90;99.90;;;;;;5064549;28;20043;-66
2022/07/22 11:36:46;;;;;;;8.02;2.40;;;18.80;99.90;;;;;;5046867;28;20488;-67
2022/07/22 11:39:17;;;;;;;7.03;2.08;;;18.80;99.90;;;;;;5045844;28;20049;-66
2022/07/22 11:41:43;;;;;;;4.20;2.17;;;18.80;99.90;;;;;;5048583;28;20037;-66
2022/07/22 11:44:09;;;;;;;5.57;1.77;;;18.70;99.90;;;;;;5047996;28;20045;-66
2022/07/22 11:46:40;;;;;;;3.67;1.67;;;18.70;99.90;;;;;;5067536;28;20049;-66
2022/07/22 11:49:07;;;;;;;6.30;1.70;;;18.60;99.90;;;;;;5049368;28;20063;-67
2022/07/22 11:51:34;;;;;;;6.57;1.63;;;18.40;99.90;;;;;;5067394;28;20428;-66
2022/07/22 11:54:01;;;;;;;5.53;1.83;;;18.50;99.90;;;;;;5048974;28;20060;-66
2022/07/22 11:56:26;;;;;;;6.50;1.65;;;18.50;99.90;;;;;;5049098;28;20126;-66
2022/07/22 11:58:54;;;;;;;5.38;1.73;;;18.30;99.90;;;;;;5049301;28;20053;-66
2022/07/22 12:01:21;;;;;;;4.50;1.45;;;18.20;99.90;;;;;;5049115;28;20559;-66
2022/07/22 12:03:57;;;;;;;7.80;1.60;;;18.30;99.90;;;;;;5048856;28;20057;-66
2022/07/22 12:06:25;;;;;;;5.85;1.80;;;18.20;99.90;;;;;;5068332;28;20062;-66
2022/07/22 12:09:01;;;;;;;3.15;1.35;;;18.20;99.90;;;;;;5068006;28;20048;-66
2022/07/22 12:11:27;;;;;;;5.13;1.85;;;18.30;99.90;;;;;;5049306;28;20085;-66
2022/07/22 12:13:53;;;;;;;4.45;1.75;;;18.40;99.90;;;;;;5049635;28;20056;-66
2022/07/22 12:16:38;;;;;;;4.50;1.42;;;18.60;99.90;;;;;;5067358;28;20036;-66
2022/07/22 12:19:09;;;;;;;3.15;2.05;;;18.70;99.90;;;;;;5032732;28;20049;-66
2022/07/22 12:21:55;;;;;;;2.75;1.40;;;18.70;99.90;;;;;;5066848;28;20144;-66
2022/07/22 12:24:35;;;;;;;7.13;1.42;;;18.70;99.90;;;;;;5066941;28;20397;-66
2022/07/22 12:27:06;;;;;;;4.43;1.10;;;18.70;99.90;;;;;;5049974;28;20049;-66
2022/07/22 12:29:44;;;;;;;3.97;1.10;;;18.70;99.90;;;;;;5032232;28;20094;-66
2022/07/22 12:32:15;;;;;;;2.80;1.20;;;18.80;99.90;;;;;;5048816;28;20064;-66
2022/07/22 12:34:46;;;;;;;2.10;1.17;;;18.90;99.90;;;;;;5042562;28;20485;-67
2022/07/22 12:37:30;;;;;;;3.65;1.20;;;19.00;99.90;;;;;;5048255;28;20536;-67
2022/07/22 12:40:05;;;;;;;4.70;1.10;;;19.00;99.90;;;;;;5049178;28;20194;-66
2022/07/22 12:42:58;;;;;;;5.88;1.40;;;18.90;99.90;;;;;;5048305;28;20069;-66
2022/07/22 12:45:26;;;;;;;2.90;1.20;;;18.90;99.90;;;;;;5047960;28;20056;-66